Time;durP1;ratioP1;P1;durP2;ratioP2;P2;SDS_P1;SDS_P2;PMS_P1;PMS_P2;Temp;Humidity;BMP_temperature;BMP_pressure;BME280_temperature;BME280_humidity;BME280_pressure;Samples;Min_cycle;Max_cycle;Signal;HPM_P1;HPM_P2
2021/10/02 00:37:32;;;;;;;0.88;0.60;;;;;;;26.71;33.27;96642.31;5033742;28;20486;-33
2021/10/02 00:45:25;;;;;;;1.77;0.75;;;;;;;26.73;33.10;96644.81;5033500;28;20044;-36
2021/10/02 00:47:54;;;;;;;0.60;0.50;;;;;;;26.72;33.29;96643.13;5029930;28;20216;-35
2021/10/02 00:50:19;;;;;;;0.60;0.60;;;;;;;26.73;33.36;96642.19;5031147;28;20029;-35
2021/10/02 00:52:46;;;;;;;0.68;0.63;;;;;;;26.71;33.25;96637.06;5017233;28;20330;-34
2021/10/02 00:55:11;;;;;;;0.60;0.60;;;;;;;26.73;33.26;96650.06;5038831;28;20030;-37
2021/10/02 00:57:37;;;;;;;0.70;0.50;;;;;;;26.72;33.27;96643.13;5031561;28;20434;-35
2021/10/02 01:00:03;;;;;;;0.88;0.88;;;;;;;26.72;33.27;96643.13;5033448;28;20404;-29
2021/10/02 01:02:32;;;;;;;0.50;0.50;;;;;;;26.72;33.27;96640.50;5001685;28;20044;-34
2021/10/02 01:04:57;;;;;;;0.57;0.57;;;;;;;26.73;33.35;96650.06;5014845;28;20037;-39
2021/10/02 01:07:41;;;;;;;0.70;0.70;;;;;;;26.72;33.10;96644.00;5032118;28;20076;-39
2021/10/02 01:10:31;;;;;;;0.60;0.60;;;;;;;26.73;33.16;96639.56;5032352;28;20451;-35
2021/10/02 01:13:31;;;;;;;0.60;0.60;;;;;;;26.72;33.22;96637.88;5032139;28;20952;-30
2021/10/02 01:16:01;;;;;;;0.68;0.60;;;;;;;26.72;33.13;96632.63;4994569;28;20049;-37
2021/10/02 01:18:35;;;;;;;0.47;0.47;;;;;;;26.71;33.27;96633.56;5030122;28;20491;-35
2021/10/02 01:21:33;;;;;;;0.93;0.60;;;;;;;26.71;33.39;96630.94;5027278;28;20032;-34
2021/10/02 01:24:19;;;;;;;0.75;0.70;;;;;;;26.72;33.22;96643.13;5038954;28;20017;-33
2021/10/02 01:27:02;;;;;;;0.70;0.70;;;;;;;26.71;33.32;96631.78;4996484;28;20045;-41
2021/10/02 01:29:28;;;;;;;1.02;0.65;;;;;;;26.71;33.27;96625.69;5032220;28;20411;-37
2021/10/02 01:32:13;;;;;;;0.60;0.60;;;;;;;26.70;33.38;96624.00;5012939;28;20028;-37
2021/10/02 01:35:30;;;;;;;0.77;0.63;;;;;;;26.71;33.38;96625.69;5028723;28;20017;-36
2021/10/02 01:37:54;;;;;;;0.40;0.40;;;;;;;26.70;33.36;96624.81;5022949;28;20041;-34
2021/10/02 01:48:33;;;;;;;0.70;0.60;;;;;;;26.69;33.24;96619.69;5031281;28;20039;-35
2021/10/02 01:50:59;;;;;;;1.02;0.50;;;;;;;26.69;33.28;96617.88;5018761;28;20016;-36
2021/10/02 01:53:26;;;;;;;0.60;0.50;;;;;;;26.70;33.35;96618.75;5013925;28;20538;-33
2021/10/02 01:55:52;;;;;;;0.70;0.40;;;;;;;26.69;33.30;96625.75;5030348;28;20160;-38
2021/10/02 01:58:18;;;;;;;0.50;0.50;;;;;;;26.69;33.21;96617.88;5011765;28;20017;-34
2021/10/02 02:00:46;;;;;;;0.73;0.73;;;;;;;26.68;33.31;96610.94;5012207;28;20033;-34
2021/10/02 02:03:14;;;;;;;0.70;0.65;;;;;;;26.70;33.28;96600.34;5031517;28;20402;-35
2021/10/02 02:05:40;;;;;;;0.50;0.50;;;;;;;26.70;33.24;96598.53;5036986;28;20037;-35
2021/10/02 02:08:09;;;;;;;0.70;0.60;;;;;;;26.70;33.36;96593.28;5019599;28;20036;-31
2021/10/02 02:10:37;;;;;;;0.80;0.80;;;;;;;26.70;33.28;96587.19;5028728;28;20787;-38
2021/10/02 02:13:02;;;;;;;1.10;0.65;;;;;;;26.70;33.28;96597.72;5012113;28;20043;-33
2021/10/02 02:15:28;;;;;;;0.60;0.60;;;;;;;26.69;33.23;96602.09;4997573;28;20048;-36
2021/10/02 02:18:00;;;;;;;0.77;0.60;;;;;;;26.69;33.26;96596.03;5026840;28;20108;-34
2021/10/02 02:20:38;;;;;;;0.65;0.65;;;;;;;26.70;33.25;96595.09;5013888;28;20828;-37
2021/10/02 02:23:04;;;;;;;0.88;0.70;;;;;;;26.69;33.24;96591.59;5018223;28;20037;-32
2021/10/02 02:25:29;;;;;;;0.50;0.50;;;;;;;26.70;33.28;96587.19;5029793;28;20071;-33
2021/10/02 02:27:55;;;;;;;0.60;0.60;;;;;;;26.69;33.32;96591.59;5013928;28;20044;-35
2021/10/02 02:30:21;;;;;;;0.60;0.60;;;;;;;26.70;33.29;96587.19;5029248;28;20024;-32
2021/10/02 02:32:46;;;;;;;0.88;0.77;;;;;;;26.70;33.26;96592.44;5010614;28;20083;-34
2021/10/02 02:35:12;;;;;;;0.60;0.60;;;;;;;26.70;33.34;96580.13;5029418;28;20037;-32
2021/10/02 02:37:37;;;;;;;0.88;0.60;;;;;;;26.70;33.23;96576.69;5027996;28;20036;-34
2021/10/02 02:40:04;;;;;;;0.70;0.68;;;;;;;26.68;33.19;96573.28;5029691;28;20472;-37
2021/10/02 02:42:30;;;;;;;0.52;0.52;;;;;;;26.70;33.42;96576.69;5029053;28;20022;-37
2021/10/02 02:44:55;;;;;;;0.40;0.40;;;;;;;26.69;33.22;96575.81;5027321;28;20032;-34
2021/10/02 02:47:25;;;;;;;1.00;0.70;;;;;;;26.69;33.34;96564.47;5023251;28;20082;-31
2021/10/02 02:49:56;;;;;;;0.50;0.50;;;;;;;26.69;33.25;96572.38;5013740;28;20066;-31
2021/10/02 02:52:23;;;;;;;0.60;0.60;;;;;;;26.68;33.31;96562.78;5010130;28;20021;-38
2021/10/02 02:54:57;;;;;;;0.82;0.70;;;;;;;26.70;33.26;96566.16;5017211;28;20024;-35
2021/10/02 02:57:26;;;;;;;0.60;0.50;;;;;;;26.68;33.37;96568.88;5026486;28;20127;-35
2021/10/02 03:00:00;;;;;;;0.60;0.60;;;;;;;26.69;33.27;96567.13;5032665;28;20032;-34
2021/10/02 03:02:25;;;;;;;0.63;0.50;;;;;;;26.68;33.39;96565.41;5027876;28;20097;-38
2021/10/02 03:04:51;;;;;;;0.65;0.52;;;;;;;26.68;33.22;96574.13;5014474;28;20435;-33
2021/10/02 03:07:18;;;;;;;0.70;0.70;;;;;;;26.69;33.38;96567.13;5011518;28;20577;-31
2021/10/02 03:09:45;;;;;;;0.50;0.50;;;;;;;26.69;33.27;96569.75;5019742;28;20029;-35
2021/10/02 03:12:11;;;;;;;0.60;0.60;;;;;;;26.69;33.36;96561.84;5026925;28;20037;-33
2021/10/02 03:14:36;;;;;;;0.85;0.50;;;;;;;26.67;33.38;96566.34;5028482;28;20021;-36
2021/10/02 03:17:02;;;;;;;0.75;0.57;;;;;;;26.68;33.26;96568.03;5026138;28;20036;-33
2021/10/02 03:19:27;;;;;;;0.82;0.80;;;;;;;26.68;33.35;96562.78;5014529;28;20029;-37
2021/10/02 03:21:53;;;;;;;0.50;0.50;;;;;;;26.68;33.42;96566.25;5010809;28;20628;-41
2021/10/02 03:24:18;;;;;;;1.02;0.60;;;;;;;26.67;33.35;96563.72;5013789;28;20043;-34
2021/10/02 03:26:43;;;;;;;0.63;0.63;;;;;;;26.68;33.38;96568.88;5008192;28;20017;-34
2021/10/02 03:29:09;;;;;;;0.55;0.55;;;;;;;26.68;33.35;96560.13;5028305;28;20040;-35
2021/10/02 03:31:34;;;;;;;0.73;0.52;;;;;;;26.68;33.36;96568.03;5011670;28;20025;-34
2021/10/02 03:34:01;;;;;;;0.50;0.50;;;;;;;26.67;33.25;96566.34;5015409;28;20952;-36
2021/10/02 03:36:26;;;;;;;0.50;0.50;;;;;;;26.68;33.33;96573.28;5028671;28;20920;-34
2021/10/02 03:38:51;;;;;;;0.40;0.40;;;;;;;26.67;33.29;96576.84;5027878;28;20114;-33
2021/10/02 03:41:17;;;;;;;0.47;0.47;;;;;;;26.67;33.25;96580.34;5025853;28;20036;-34
2021/10/02 03:43:42;;;;;;;0.63;0.50;;;;;;;26.68;33.38;96578.53;5026986;28;20025;-37
2021/10/02 03:46:08;;;;;;;0.65;0.65;;;;;;;26.68;33.40;96583.78;5024483;28;20550;-33
2021/10/02 03:48:33;;;;;;;0.43;0.43;;;;;;;26.66;33.27;96580.44;5029107;28;20128;-35
2021/10/02 03:50:59;;;;;;;0.95;0.70;;;;;;;26.68;33.41;96578.53;5028757;28;20021;-34
2021/10/02 03:53:27;;;;;;;0.73;0.60;;;;;;;26.67;33.39;96571.59;5029556;28;20104;-35
2021/10/02 03:55:54;;;;;;;0.63;0.55;;;;;;;26.66;33.27;96569.91;5029299;28;20784;-38
2021/10/02 03:58:20;;;;;;;0.57;0.57;;;;;;;26.65;33.38;96568.22;5027299;28;20413;-30
2021/10/02 04:00:45;;;;;;;0.70;0.70;;;;;;;26.66;33.41;96573.38;5034455;28;20021;-35
2021/10/02 04:03:11;;;;;;;0.80;0.60;;;;;;;26.65;33.30;96565.59;5020740;28;20029;-36
2021/10/02 04:05:36;;;;;;;0.70;0.70;;;;;;;26.66;33.37;96564.66;5025346;28;20053;-35
2021/10/02 04:08:01;;;;;;;0.57;0.50;;;;;;;26.66;33.37;96564.66;5033755;28;20024;-32
2021/10/02 04:10:27;;;;;;;0.70;0.68;;;;;;;26.65;33.39;96562.97;5035873;28;20021;-36
2021/10/02 04:12:52;;;;;;;0.40;0.40;;;;;;;26.64;33.29;96558.63;5038427;28;20035;-35
2021/10/02 04:15:18;;;;;;;0.50;0.50;;;;;;;26.65;33.40;96562.97;5033350;28;20462;-37
2021/10/02 04:17:43;;;;;;;1.58;0.77;;;;;;;26.64;33.27;96562.13;5034884;28;20083;-36
2021/10/02 04:20:09;;;;;;;0.50;0.50;;;;;;;26.63;33.39;96557.81;5032550;28;20099;-34
2021/10/02 04:22:35;;;;;;;0.70;0.70;;;;;;;26.64;33.37;96562.13;5033163;28;20123;-31
2021/10/02 04:25:00;;;;;;;0.60;0.60;;;;;;;26.65;33.34;96568.22;5036438;28;20025;-29
2021/10/02 04:27:26;;;;;;;0.73;0.73;;;;;;;26.64;33.49;96562.13;5031755;28;20033;-38
2021/10/02 04:29:51;;;;;;;0.40;0.40;;;;;;;26.65;33.34;96573.50;5036883;28;20033;-37
2021/10/02 04:32:16;;;;;;;0.70;0.60;;;;;;;26.65;33.37;96576.13;5024116;28;20033;-34
2021/10/02 04:34:42;;;;;;;0.50;0.50;;;;;;;26.65;33.29;96570.88;5036045;28;20025;-32
2021/10/02 04:37:08;;;;;;;0.90;0.60;;;;;;;26.64;33.38;96577.03;5030392;28;20095;-35
2021/10/02 04:39:34;;;;;;;0.60;0.60;;;;;;;26.65;33.39;96576.13;5017459;28;20029;-34
2021/10/02 04:42:00;;;;;;;0.60;0.60;;;;;;;26.65;33.37;96573.50;5034128;28;20728;-36
2021/10/02 04:44:25;;;;;;;0.68;0.57;;;;;;;26.65;33.38;96584.00;5036264;28;20033;-33
2021/10/02 04:46:51;;;;;;;0.63;0.63;;;;;;;26.65;33.31;96578.75;5034889;28;20021;-32
2021/10/02 04:49:16;;;;;;;0.50;0.50;;;;;;;26.63;33.18;96570.94;5033569;28;20025;-32
2021/10/02 04:51:41;;;;;;;0.60;0.60;;;;;;;26.64;33.29;96572.63;5017078;28;20021;-32
2021/10/02 04:54:07;;;;;;;0.73;0.60;;;;;;;26.64;33.38;96579.66;5032793;28;20686;-38
2021/10/02 04:56:32;;;;;;;1.98;0.50;;;;;;;26.64;33.24;96572.63;5006130;28;20029;-31
2021/10/02 04:58:58;;;;;;;0.50;0.50;;;;;;;26.64;33.36;96572.63;5032867;28;20032;-36
2021/10/02 05:01:24;;;;;;;0.65;0.60;;;;;;;26.63;33.32;96564.84;5039003;28;20541;-37
2021/10/02 05:03:49;;;;;;;0.50;0.50;;;;;;;26.64;33.26;96567.38;5018802;28;20028;-35
2021/10/02 05:06:15;;;;;;;0.82;0.70;;;;;;;26.64;33.30;96563.88;5033602;28;20419;-33
2021/10/02 05:08:40;;;;;;;0.70;0.40;;;;;;;26.64;33.29;96566.53;5016625;28;20013;-33
2021/10/02 05:11:06;;;;;;;0.60;0.60;;;;;;;26.63;33.44;96564.84;5030454;28;20033;-35
2021/10/02 05:13:32;;;;;;;0.50;0.50;;;;;;;26.64;33.34;96561.25;5031308;28;20025;-38
2021/10/02 05:15:58;;;;;;;0.50;0.50;;;;;;;26.62;33.49;96553.50;5026098;28;20470;-34
2021/10/02 05:18:24;;;;;;;0.57;0.57;;;;;;;26.63;33.31;96554.31;5015844;28;20749;-34
2021/10/02 05:20:49;;;;;;;0.65;0.63;;;;;;;26.62;33.36;96550.88;5033505;28;20025;-35
2021/10/02 05:23:14;;;;;;;0.77;0.60;;;;;;;26.63;33.29;96546.44;5031341;28;20028;-39
2021/10/02 05:25:40;;;;;;;0.63;0.57;;;;;;;26.63;33.42;96549.06;5014187;28;20020;-36
2021/10/02 05:28:05;;;;;;;0.70;0.70;;;;;;;26.64;33.40;96550.75;5028330;28;20044;-36
2021/10/02 05:30:31;;;;;;;0.60;0.60;;;;;;;26.63;33.40;96543.81;5028918;28;20567;-37
2021/10/02 05:32:56;;;;;;;0.73;0.47;;;;;;;26.62;33.28;96532.47;5029820;28;20032;-32
2021/10/02 05:35:22;;;;;;;0.70;0.70;;;;;;;26.62;33.32;96532.47;5011357;28;20188;-34
2021/10/02 05:37:47;;;;;;;0.50;0.50;;;;;;;26.61;33.29;96531.63;5029358;28;20025;-33
2021/10/02 05:40:13;;;;;;;0.60;0.60;;;;;;;26.61;33.27;96531.63;5030466;28;20825;-36
2021/10/02 05:42:38;;;;;;;0.77;0.70;;;;;;;26.61;33.40;96531.63;5030408;28;20087;-33
2021/10/02 05:45:04;;;;;;;0.60;0.60;;;;;;;26.61;33.36;96530.75;5030149;28;20051;-32
2021/10/02 05:47:30;;;;;;;0.40;0.40;;;;;;;26.61;33.30;96526.34;5028554;28;20037;-37
2021/10/02 05:49:55;;;;;;;0.70;0.70;;;;;;;26.61;33.45;96533.38;5028736;28;20075;-35
2021/10/02 05:52:20;;;;;;;0.57;0.57;;;;;;;26.61;33.44;96526.34;5026131;28;20355;-34
2021/10/02 05:54:46;;;;;;;0.52;0.52;;;;;;;26.60;33.30;96522.03;5029377;28;20033;-32
2021/10/02 05:57:11;;;;;;;0.50;0.50;;;;;;;26.61;33.52;96521.09;5029345;28;20028;-37
2021/10/02 05:59:36;;;;;;;0.40;0.40;;;;;;;26.60;33.23;96529.94;5028706;28;20385;-35
2021/10/02 06:02:02;;;;;;;0.65;0.55;;;;;;;26.59;33.25;96533.47;5027794;28;20028;-34
2021/10/02 06:04:28;;;;;;;0.55;0.55;;;;;;;26.60;33.30;96529.94;5020259;28;20033;-35
2021/10/02 06:06:53;;;;;;;0.75;0.50;;;;;;;26.60;33.30;96532.56;5030852;28;20033;-30
2021/10/02 06:09:18;;;;;;;0.60;0.57;;;;;;;26.61;33.31;96546.53;5028507;28;20290;-38
2021/10/02 06:11:44;;;;;;;0.52;0.50;;;;;;;26.60;33.46;96532.56;5032936;28;20613;-31
2021/10/02 06:14:09;;;;;;;0.60;0.60;;;;;;;26.60;33.43;96535.19;5033941;28;20369;-32
2021/10/02 06:16:36;;;;;;;1.02;0.55;;;;;;;26.60;33.50;96540.44;5026615;28;20025;-34
2021/10/02 06:19:05;;;;;;;0.60;0.60;;;;;;;26.61;33.38;96536.88;5028111;28;20550;-34
2021/10/02 06:21:30;;;;;;;0.60;0.60;;;;;;;26.60;33.50;96537.81;5027967;28;20083;-34
2021/10/02 06:23:59;;;;;;;0.57;0.50;;;;;;;26.60;33.41;96531.69;5030094;28;20033;-32
2021/10/02 06:26:29;;;;;;;0.70;0.70;;;;;;;26.60;33.52;96529.94;5026610;28;20032;-38
2021/10/02 06:28:55;;;;;;;0.52;0.52;;;;;;;26.59;33.54;96536.09;5008780;28;20032;-34
2021/10/02 06:31:20;;;;;;;0.82;0.70;;;;;;;26.60;33.38;96534.34;5031887;28;21119;-35
2021/10/02 06:33:46;;;;;;;0.77;0.60;;;;;;;26.59;33.31;96525.59;5028128;28;20029;-28
2021/10/02 06:36:12;;;;;;;1.00;0.77;;;;;;;26.60;33.40;96534.34;5028073;28;20021;-31
2021/10/02 06:38:38;;;;;;;1.52;0.80;;;;;;;26.60;33.44;96545.69;5026862;28;20136;-34
2021/10/02 06:41:03;;;;;;;0.63;0.60;;;;;;;26.59;33.37;96549.25;5027008;28;20025;-31
2021/10/02 06:43:28;;;;;;;0.75;0.75;;;;;;;26.59;33.48;96545.78;5027631;28;20111;-31
2021/10/02 06:45:54;;;;;;;0.63;0.63;;;;;;;26.58;33.48;96544.94;5029674;28;20033;-33
2021/10/02 06:48:19;;;;;;;0.93;0.88;;;;;;;26.60;33.36;96544.84;5028849;28;20087;-32
2021/10/02 06:50:45;;;;;;;0.70;0.70;;;;;;;26.59;33.48;96544.00;5028876;28;20055;-34
2021/10/02 06:53:10;;;;;;;0.60;0.60;;;;;;;26.58;33.45;96542.31;5033330;28;20498;-34
2021/10/02 06:55:35;;;;;;;0.50;0.50;;;;;;;26.59;33.46;96549.25;5027675;28;20026;-33
2021/10/02 06:58:01;;;;;;;0.90;0.90;;;;;;;26.59;33.47;96549.25;4999976;28;20025;-37
2021/10/02 07:00:26;;;;;;;0.75;0.52;;;;;;;26.58;33.53;96544.94;5027560;28;20017;-34
2021/10/02 07:02:52;;;;;;;0.65;0.60;;;;;;;26.59;33.50;96544.00;5030762;28;20057;-32
2021/10/02 07:05:17;;;;;;;0.50;0.50;;;;;;;26.58;33.63;96539.69;5032052;28;20037;-33
2021/10/02 07:07:43;;;;;;;0.70;0.60;;;;;;;26.60;33.54;96550.09;5016051;28;20465;-34
2021/10/02 07:10:09;;;;;;;0.60;0.60;;;;;;;26.59;33.58;96554.50;5027901;28;20025;-30
2021/10/02 07:12:35;;;;;;;0.60;0.60;;;;;;;26.61;33.60;96554.41;5028818;28;20519;-33
2021/10/02 07:15:04;;;;;;;0.75;0.65;;;;;;;26.61;33.55;96552.63;5028998;28;20032;-36
2021/10/02 07:17:29;;;;;;;0.60;0.60;;;;;;;26.63;33.52;96559.56;5027739;28;20036;-38
2021/10/02 07:19:54;;;;;;;0.55;0.55;;;;;;;26.63;33.44;96556.94;5029919;28;20034;-32
2021/10/02 07:22:20;;;;;;;0.73;0.73;;;;;;;26.63;33.59;96544.66;5033848;28;20043;-34
2021/10/02 07:24:45;;;;;;;0.77;0.55;;;;;;;26.64;33.46;96537.59;5024714;28;20033;-31
2021/10/02 07:27:14;;;;;;;0.60;0.60;;;;;;;26.65;33.52;96536.69;5025348;28;20033;-32
2021/10/02 07:29:39;;;;;;;0.50;0.50;;;;;;;26.65;33.49;96541.94;5008545;28;20869;-35
2021/10/02 07:32:05;;;;;;;0.50;0.50;;;;;;;26.66;33.53;96554.97;5028223;28;20061;-37
2021/10/02 07:34:30;;;;;;;0.60;0.60;;;;;;;26.66;33.60;96544.47;5024841;28;20040;-32
2021/10/02 07:36:56;;;;;;;0.40;0.40;;;;;;;26.67;33.45;96534.81;5026772;28;20476;-33
2021/10/02 07:39:21;;;;;;;0.63;0.60;;;;;;;26.67;33.38;96543.53;5011920;28;20027;-37
2021/10/02 07:41:48;;;;;;;0.57;0.57;;;;;;;26.67;33.51;96540.91;5027984;28;20029;-35
2021/10/02 07:44:14;;;;;;;0.70;0.68;;;;;;;26.67;33.62;96540.91;5029141;28;20039;-32
2021/10/02 07:46:47;;;;;;;1.48;0.70;;;;;;;26.68;33.59;96545.22;5013261;28;20597;-36
2021/10/02 07:49:12;;;;;;;0.73;0.60;;;;;;;26.68;33.57;96541.75;5026385;28;20094;-38
2021/10/02 07:51:38;;;;;;;0.70;0.70;;;;;;;26.69;33.63;96543.47;5033051;28;20036;-28
2021/10/02 07:54:05;;;;;;;0.60;0.60;;;;;;;26.69;34.02;96548.72;5011842;28;20920;-36
2021/10/02 07:56:30;;;;;;;0.90;0.60;;;;;;;26.69;33.68;96544.28;5037351;28;20024;-33
2021/10/02 07:59:54;;;;;;;0.40;0.40;;;;;;;-148.56;100.00;61375.16;5025460;28;20025;-31
2021/10/02 08:03:19;;;;;;;0.60;0.60;;;;;;;-148.56;100.00;61375.16;5016506;28;20033;-35
2021/10/02 08:06:42;;;;;;;0.68;0.50;;;;;;;-148.56;100.00;61375.16;5030085;28;20017;-35
2021/10/02 08:10:07;;;;;;;0.50;0.50;;;;;;;-148.56;100.00;61375.16;5028964;28;20151;-34
2021/10/02 08:13:30;;;;;;;0.95;0.60;;;;;;;-148.56;100.00;61375.16;5027934;28;20403;-32
2021/10/02 08:16:11;;;;;;;0.50;0.40;;;;;;;26.69;33.68;96544.28;5024301;28;20026;-36
2021/10/02 08:18:38;;;;;;;0.77;0.50;;;;;;;26.64;33.76;96532.34;5028478;28;20044;-38
2021/10/02 08:21:04;;;;;;;0.50;0.50;;;;;;;26.64;33.71;96540.22;5010245;28;20033;-38
2021/10/02 08:23:30;;;;;;;0.55;0.45;;;;;;;26.64;33.78;96540.22;5029637;28;20027;-34
2021/10/02 08:25:55;;;;;;;0.52;0.52;;;;;;;26.66;33.74;96541.00;5012663;28;20029;-36
2021/10/02 08:28:20;;;;;;;0.75;0.50;;;;;;;26.67;33.81;96534.81;5028251;28;20088;-34
2021/10/02 08:30:47;;;;;;;0.63;0.57;;;;;;;26.67;33.83;96534.81;5028326;28;20040;-38
2021/10/02 08:33:12;;;;;;;0.50;0.50;;;;;;;26.69;33.74;96532.94;5026565;28;20175;-37
2021/10/02 08:35:39;;;;;;;0.60;0.60;;;;;;;26.67;33.70;96525.16;5025081;28;20028;-37
2021/10/02 08:38:04;;;;;;;0.55;0.55;;;;;;;26.69;33.74;96527.69;5028195;28;20111;-38
2021/10/02 08:40:29;;;;;;;0.60;0.60;;;;;;;26.70;33.65;96521.47;5027687;28;20025;-36
2021/10/02 08:42:55;;;;;;;0.65;0.50;;;;;;;26.70;33.89;96518.84;5017782;28;20029;-38
2021/10/02 08:45:20;;;;;;;1.15;0.70;;;;;;;26.71;33.89;96520.53;5024629;28;20033;-36
2021/10/02 08:47:46;;;;;;;0.55;0.50;;;;;;;26.71;33.71;96520.53;5015660;28;20032;-37
2021/10/02 08:50:15;;;;;;;0.55;0.55;;;;;;;26.72;33.79;96522.22;5029683;28;20079;-36
2021/10/02 08:52:40;;;;;;;0.75;0.60;;;;;;;26.72;33.74;96527.47;5032224;28;20566;-36
2021/10/02 08:55:06;;;;;;;0.40;0.40;;;;;;;26.72;33.75;96527.47;5030000;28;20028;-37
2021/10/02 08:57:33;;;;;;;0.57;0.50;;;;;;;26.73;33.88;96518.66;5035299;28;20024;-35
2021/10/02 08:59:59;;;;;;;0.50;0.50;;;;;;;26.73;33.85;96521.28;5031124;28;20024;-38
2021/10/02 09:02:24;;;;;;;0.55;0.55;;;;;;;26.73;33.79;96516.00;5031116;28;20238;-39
2021/10/02 09:04:50;;;;;;;0.40;0.40;;;;;;;26.74;33.76;96509.84;5016334;28;20499;-36
2021/10/02 09:07:16;;;;;;;0.40;0.40;;;;;;;26.74;33.77;96504.59;5015455;28;20115;-35
2021/10/02 09:09:42;;;;;;;0.50;0.50;;;;;;;26.73;33.92;96502.88;5034072;28;20798;-36
2021/10/02 09:12:08;;;;;;;0.50;0.50;;;;;;;26.74;33.87;96499.31;5033823;28;20755;-37
2021/10/02 09:14:34;;;;;;;0.43;0.43;;;;;;;26.76;33.73;96500.06;5030539;28;20100;-33
2021/10/02 09:16:59;;;;;;;0.50;0.50;;;;;;;26.74;33.79;96487.00;5025553;28;20104;-37
2021/10/02 09:19:25;;;;;;;0.60;0.60;;;;;;;26.75;33.78;96485.25;5032195;28;20570;-36
2021/10/02 09:21:57;;;;;;;0.52;0.52;;;;;;;26.75;33.79;96490.50;5031590;28;20025;-36
2021/10/02 09:24:22;;;;;;;;;;;;;;;26.76;33.82;96484.28;5025940;28;20024;-34
2021/10/02 09:26:48;;;;;;;0.57;0.55;;;;;;;26.76;33.88;96484.28;5031109;28;19930;-36
2021/10/02 09:29:14;;;;;;;0.82;0.50;;;;;;;26.76;33.72;96480.84;5031851;28;20036;-38
2021/10/02 09:31:40;;;;;;;0.85;0.60;;;;;;;26.75;33.84;96479.97;5029346;28;20017;-36
2021/10/02 09:34:05;;;;;;;0.60;0.60;;;;;;;26.76;33.80;96484.28;5030480;28;20831;-39
2021/10/02 09:36:31;;;;;;;0.55;0.55;;;;;;;26.76;33.90;96481.66;5021063;28;20082;-31
2021/10/02 09:38:56;;;;;;;0.55;0.52;;;;;;;26.77;33.84;96482.53;5015822;28;20037;-37
2021/10/02 09:41:22;;;;;;;0.50;0.43;;;;;;;26.77;33.98;96477.25;5032512;28;20025;-35
2021/10/02 09:43:53;;;;;;;0.30;0.30;;;;;;;26.78;33.74;96473.69;5028595;28;20769;-34
2021/10/02 09:46:33;;;;;;;0.50;0.32;;;;;;;26.78;33.83;96479.81;5035142;28;20122;-31
2021/10/02 09:48:59;;;;;;;0.50;0.50;;;;;;;26.78;33.79;96474.53;5011064;28;20095;-37
2021/10/02 09:51:39;;;;;;;0.32;0.32;;;;;;;26.79;33.96;96475.38;5028745;28;20041;-34
2021/10/02 09:54:05;;;;;;;0.50;0.50;;;;;;;26.78;33.78;96464.03;5031874;28;20150;-37
2021/10/02 09:56:30;;;;;;;0.40;0.40;;;;;;;26.78;33.98;96453.50;5028772;28;20068;-32
2021/10/02 09:58:57;;;;;;;0.60;0.60;;;;;;;26.78;33.86;96464.03;5028253;28;20026;-34
2021/10/02 10:01:25;;;;;;;0.57;0.47;;;;;;;26.79;33.85;96449.06;5012314;28;20795;-36
2021/10/02 10:03:50;;;;;;;0.60;0.60;;;;;;;26.79;33.93;96457.81;5018164;28;20028;-32
2021/10/02 10:06:23;;;;;;;0.60;0.60;;;;;;;26.79;33.87;96442.06;5031383;28;20075;-33
2021/10/02 10:09:03;;;;;;;0.35;0.35;;;;;;;26.80;33.85;96441.09;5029134;28;21251;-34
2021/10/02 10:11:45;;;;;;;0.60;0.55;;;;;;;26.81;33.92;96437.53;5023835;28;21184;-31
2021/10/02 10:14:22;;;;;;;0.50;0.50;;;;;;;26.80;33.98;96430.59;5030725;28;20144;-33
2021/10/02 10:16:47;;;;;;;1.02;0.50;;;;;;;26.81;33.86;96427.00;5028933;28;20021;-35
2021/10/02 10:19:17;;;;;;;0.40;0.40;;;;;;;26.81;33.84;96429.63;5029191;28;20557;-34
2021/10/02 10:21:43;;;;;;;0.77;0.50;;;;;;;26.82;33.91;96422.59;5033392;28;20024;-35
2021/10/02 10:24:08;;;;;;;0.70;0.40;;;;;;;26.82;34.00;96418.22;5027937;28;20710;-35
2021/10/02 10:26:33;;;;;;;0.70;0.55;;;;;;;26.83;33.88;96413.78;5029625;28;20051;-31
2021/10/02 10:28:59;;;;;;;0.40;0.40;;;;;;;26.84;33.92;96415.44;5014039;28;20036;-38
2021/10/02 10:31:25;;;;;;;0.30;0.30;;;;;;;26.84;33.90;96420.72;5018408;28;20025;-32
2021/10/02 10:33:53;;;;;;;0.38;0.38;;;;;;;26.84;34.03;96420.72;5028347;28;20359;-39
2021/10/02 10:36:20;;;;;;;0.40;0.40;;;;;;;26.84;33.95;96405.78;5029345;28;20081;-35
2021/10/02 10:38:46;;;;;;;0.60;0.60;;;;;;;26.84;34.00;96395.28;5026930;28;20110;-32
2021/10/02 10:41:13;;;;;;;0.43;0.43;;;;;;;26.84;34.02;96397.06;5030625;28;20403;-38
2021/10/02 10:43:38;;;;;;;0.40;0.40;;;;;;;26.84;34.03;96392.66;5028340;28;20498;-36
2021/10/02 10:46:06;;;;;;;0.65;0.60;;;;;;;26.84;33.93;96397.91;5029486;28;20023;-37
2021/10/02 10:48:31;;;;;;;0.63;0.50;;;;;;;26.85;33.92;96402.22;5025213;28;20427;-35
2021/10/02 10:51:16;;;;;;;0.52;0.40;;;;;;;26.87;34.03;96396.88;5031662;28;20056;-33
2021/10/02 10:53:46;;;;;;;0.80;0.50;;;;;;;26.85;34.01;96391.69;5027966;28;20116;-37
2021/10/02 10:56:12;;;;;;;0.57;0.45;;;;;;;26.86;34.09;96388.13;5010347;28;20028;-37
2021/10/02 10:58:38;;;;;;;0.93;0.60;;;;;;;26.86;33.87;96390.75;5026443;28;20032;-34
2021/10/02 11:01:05;;;;;;;0.40;0.40;;;;;;;26.87;34.04;96379.31;5035957;28;20022;-37
2021/10/02 11:03:38;;;;;;;0.60;0.47;;;;;;;26.87;34.02;96379.31;5028127;28;20898;-39
2021/10/02 11:06:05;;;;;;;0.50;0.50;;;;;;;26.88;34.14;96381.00;5028027;28;20608;-34
2021/10/02 11:08:55;;;;;;;0.50;0.50;;;;;;;26.88;34.11;96369.63;5025560;28;20033;-32
2021/10/02 11:11:43;;;;;;;0.57;0.50;;;;;;;26.88;33.98;96375.75;5029791;28;20162;-36
2021/10/02 11:14:12;;;;;;;0.40;0.40;;;;;;;26.88;34.18;96367.84;5029075;28;20123;-36
2021/10/02 11:16:39;;;;;;;0.45;0.45;;;;;;;26.90;34.00;96372.16;5024167;28;20029;-34
2021/10/02 11:19:30;;;;;;;0.40;0.40;;;;;;;26.88;34.12;96352.06;5029906;28;20120;-33
2021/10/02 11:22:02;;;;;;;0.50;0.50;;;;;;;26.91;34.08;96353.66;5026979;28;20048;-38
2021/10/02 11:24:38;;;;;;;0.63;0.63;;;;;;;26.90;34.06;96351.13;5029192;28;20036;-36
2021/10/02 11:27:04;;;;;;;0.40;0.40;;;;;;;26.89;34.06;96347.69;5029754;28;20029;-35
2021/10/02 11:29:31;;;;;;;0.63;0.50;;;;;;;26.90;34.18;96343.25;5026260;28;20406;-38
2021/10/02 11:32:21;;;;;;;0.45;0.45;;;;;;;26.91;34.22;96334.41;5028434;28;20033;-31
2021/10/02 11:35:22;;;;;;;0.40;0.40;;;;;;;26.92;34.15;96322.97;5017984;28;20029;-33
2021/10/02 11:38:00;;;;;;;0.40;0.40;;;;;;;26.91;34.14;96321.25;4969082;28;20157;-33
2021/10/02 11:40:32;;;;;;;0.57;0.40;;;;;;;26.92;34.16;96317.72;5017298;28;20041;-33
2021/10/02 11:43:13;;;;;;;0.40;0.40;;;;;;;26.92;34.29;96315.06;5026964;28;20033;-39
2021/10/02 11:45:39;;;;;;;0.40;0.40;;;;;;;26.92;34.26;96307.19;5027375;28;20025;-38
2021/10/02 11:48:12;;;;;;;0.40;0.40;;;;;;;26.92;34.25;96308.00;5024096;28;20055;-29
2021/10/02 11:50:38;;;;;;;0.38;0.38;;;;;;;26.93;34.19;96304.44;5029389;28;20629;-33
2021/10/02 11:53:03;;;;;;;0.93;0.55;;;;;;;26.94;34.07;96300.03;5029233;28;20052;-35
2021/10/02 11:55:40;;;;;;;0.35;0.35;;;;;;;26.93;34.22;96298.34;5032493;28;20025;-34
2021/10/02 11:58:11;;;;;;;0.50;0.43;;;;;;;26.94;34.06;96300.03;5030277;28;20789;-37
2021/10/02 12:00:48;;;;;;;0.50;0.50;;;;;;;26.94;34.19;96295.66;5020694;28;20037;-30
2021/10/02 12:03:16;;;;;;;1.00;0.55;;;;;;;26.95;34.24;96291.22;5028331;28;20079;-31
2021/10/02 12:05:46;;;;;;;0.52;0.40;;;;;;;26.95;34.18;96278.06;5026734;28;20427;-34
2021/10/02 12:08:12;;;;;;;0.50;0.50;;;;;;;26.95;34.14;96267.56;5021634;28;20078;-38
2021/10/02 12:10:58;;;;;;;0.32;0.30;;;;;;;26.96;34.17;96271.91;5008115;28;20029;-31
2021/10/02 12:13:28;;;;;;;0.40;0.40;;;;;;;26.96;34.30;96264.00;5026271;28;20040;-33
2021/10/02 12:16:03;;;;;;;0.32;0.32;;;;;;;26.97;34.25;96265.69;5023972;28;20029;-36
2021/10/02 12:18:45;;;;;;;0.50;0.50;;;;;;;26.97;34.11;96257.78;5024969;28;20476;-38
2021/10/02 12:21:31;;;;;;;0.38;0.38;;;;;;;26.97;34.22;96252.53;5032918;28;20036;-34
2021/10/02 12:24:07;;;;;;;0.40;0.40;;;;;;;26.98;34.28;96248.97;5032490;28;20487;-33
2021/10/02 12:26:37;;;;;;;0.93;0.40;;;;;;;26.97;34.27;96237.59;5030992;28;20036;-32
2021/10/02 12:29:05;;;;;;;0.50;0.47;;;;;;;26.98;34.22;96239.28;5032418;28;20056;-34
2021/10/02 12:31:46;;;;;;;0.30;0.30;;;;;;;26.99;34.34;96240.97;5032188;28;20082;-37
2021/10/02 12:34:12;;;;;;;0.50;0.50;;;;;;;26.99;34.21;96234.84;5029203;28;20026;-37